sensor_id;sensor_type;location;lat;lon;timestamp;P1;P2;P0
41382;PMS5003;27971;53.902;9.118;2022-12-18T00:05:04;20.14;18.61;
41382;PMS5003;27971;53.902;9.118;2022-12-18T00:07:07;18.49;16.62;
41382;PMS5003;27971;53.902;9.118;2022-12-18T00:09:10;20.43;18.24;
41382;PMS5003;27971;53.902;9.118;2022-12-18T00:11:13;20.97;17.78;
41382;PMS5003;27971;53.902;9.118;2022-12-18T00:13:15;19.04;17.51;
41382;PMS5003;27971;53.902;9.118;2022-12-18T00:15:18;21.39;19.71;
41382;PMS5003;27971;53.902;9.118;2022-12-18T00:17:20;22.16;19.43;
41382;PMS5003;27971;53.902;9.118;2022-12-18T00:19:23;20.43;18.47;
41382;PMS5003;27971;53.902;9.118;2022-12-18T00:21:26;18.86;17.36;
41382;PMS5003;27971;53.902;9.118;2022-12-18T00:23:28;18.56;16.96;
41382;PMS5003;27971;53.902;9.118;2022-12-18T00:25:32;18.39;17.59;
41382;PMS5003;27971;53.902;9.118;2022-12-18T00:27:34;17.78;16.81;
41382;PMS5003;27971;53.902;9.118;2022-12-18T00:29:37;18.67;17.79;
41382;PMS5003;27971;53.902;9.118;2022-12-18T00:31:40;21.77;19.46;
41382;PMS5003;27971;53.902;9.118;2022-12-18T00:33:42;20.13;17.4;
41382;PMS5003;27971;53.902;9.118;2022-12-18T00:35:45;19.04;16.53;
41382;PMS5003;27971;53.902;9.118;2022-12-18T00:37:47;17.8;15.67;
41382;PMS5003;27971;53.902;9.118;2022-12-18T00:39:50;17.5;16.57;
41382;PMS5003;27971;53.902;9.118;2022-12-18T00:41:53;18.48;17.42;
41382;PMS5003;27971;53.902;9.118;2022-12-18T00:43:55;19.95;17.27;
41382;PMS5003;27971;53.902;9.118;2022-12-18T00:45:58;20.46;19.77;
41382;PMS5003;27971;53.902;9.118;2022-12-18T00:48:01;20.18;19.26;
41382;PMS5003;27971;53.902;9.118;2022-12-18T00:50:04;20.4;18.1;
41382;PMS5003;27971;53.902;9.118;2022-12-18T00:52:07;18.8;17.47;
41382;PMS5003;27971;53.902;9.118;2022-12-18T00:54:10;17.8;16.06;
41382;PMS5003;27971;53.902;9.118;2022-12-18T00:56:13;17.73;17.25;
41382;PMS5003;27971;53.902;9.118;2022-12-18T00:58:16;19.01;18.33;
41382;PMS5003;27971;53.902;9.118;2022-12-18T01:00:19;19.55;17.81;
41382;PMS5003;27971;53.902;9.118;2022-12-18T01:02:21;18.86;17.22;
41382;PMS5003;27971;53.902;9.118;2022-12-18T01:04:24;19.56;18.19;
41382;PMS5003;27971;53.902;9.118;2022-12-18T01:06:26;18.43;16.77;
41382;PMS5003;27971;53.902;9.118;2022-12-18T01:08:28;20.47;18.71;
41382;PMS5003;27971;53.902;9.118;2022-12-18T01:10:31;19.22;17.56;
41382;PMS5003;27971;53.902;9.118;2022-12-18T01:12:34;17.89;16.9;
41382;PMS5003;27971;53.902;9.118;2022-12-18T01:14:37;18.06;16.8;
41382;PMS5003;27971;53.902;9.118;2022-12-18T01:16:40;19.97;18.14;
41382;PMS5003;27971;53.902;9.118;2022-12-18T01:18:44;17.4;16.84;
41382;PMS5003;27971;53.902;9.118;2022-12-18T01:20:45;18.39;17.18;
41382;PMS5003;27971;53.902;9.118;2022-12-18T01:22:48;17.76;15.72;
41382;PMS5003;27971;53.902;9.118;2022-12-18T01:24:50;20.57;16.97;
41382;PMS5003;27971;53.902;9.118;2022-12-18T01:26:52;18.7;17.07;
41382;PMS5003;27971;53.902;9.118;2022-12-18T01:28:55;19.74;18.93;
41382;PMS5003;27971;53.902;9.118;2022-12-18T01:30:57;18.38;17.04;
41382;PMS5003;27971;53.902;9.118;2022-12-18T01:33:00;20.26;18.58;
41382;PMS5003;27971;53.902;9.118;2022-12-18T01:35:03;19.77;17.06;
41382;PMS5003;27971;53.902;9.118;2022-12-18T01:37:05;19.54;18.16;
41382;PMS5003;27971;53.902;9.118;2022-12-18T01:39:10;19.97;18.46;
41382;PMS5003;27971;53.902;9.118;2022-12-18T01:41:10;17.17;15.79;
41382;PMS5003;27971;53.902;9.118;2022-12-18T01:43:13;17.89;15.8;
41382;PMS5003;27971;53.902;9.118;2022-12-18T01:45:25;19.47;18.01;
41382;PMS5003;27971;53.902;9.118;2022-12-18T01:47:19;16.93;15.82;
41382;PMS5003;27971;53.902;9.118;2022-12-18T01:49:21;18.76;17.49;
41382;PMS5003;27971;53.902;9.118;2022-12-18T01:51:24;18.11;17.02;
41382;PMS5003;27971;53.902;9.118;2022-12-18T01:53:27;17.43;16.52;
41382;PMS5003;27971;53.902;9.118;2022-12-18T01:55:31;17.59;16.53;
41382;PMS5003;27971;53.902;9.118;2022-12-18T01:57:33;17.95;16.34;
41382;PMS5003;27971;53.902;9.118;2022-12-18T01:59:36;18.16;17.09;
41382;PMS5003;27971;53.902;9.118;2022-12-18T02:01:39;17.11;15.12;
41382;PMS5003;27971;53.902;9.118;2022-12-18T02:03:42;16.94;14.83;
41382;PMS5003;27971;53.902;9.118;2022-12-18T02:05:46;17.94;16.54;
41382;PMS5003;27971;53.902;9.118;2022-12-18T02:07:50;17.35;16.27;
41382;PMS5003;27971;53.902;9.118;2022-12-18T02:09:53;17.27;16.28;
41382;PMS5003;27971;53.902;9.118;2022-12-18T02:11:56;19.32;16.95;
41382;PMS5003;27971;53.902;9.118;2022-12-18T02:14:00;17.4;16.04;
41382;PMS5003;27971;53.902;9.118;2022-12-18T02:16:00;20.09;17.11;
41382;PMS5003;27971;53.902;9.118;2022-12-18T02:18:03;18.8;17.88;
41382;PMS5003;27971;53.902;9.118;2022-12-18T02:20:06;18.19;16.74;
41382;PMS5003;27971;53.902;9.118;2022-12-18T02:22:10;17.13;15.73;
41382;PMS5003;27971;53.902;9.118;2022-12-18T02:24:14;17.77;16.76;
41382;PMS5003;27971;53.902;9.118;2022-12-18T02:26:14;15.78;15.32;
41382;PMS5003;27971;53.902;9.118;2022-12-18T02:28:15;16.6;15.53;
41382;PMS5003;27971;53.902;9.118;2022-12-18T02:30:17;16.86;16.03;
41382;PMS5003;27971;53.902;9.118;2022-12-18T02:32:22;18.87;18.09;
41382;PMS5003;27971;53.902;9.118;2022-12-18T02:34:24;15.65;15.28;
41382;PMS5003;27971;53.902;9.118;2022-12-18T02:36:26;17.72;16.14;
41382;PMS5003;27971;53.902;9.118;2022-12-18T02:38:29;17.51;16.04;
41382;PMS5003;27971;53.902;9.118;2022-12-18T02:40:31;17.64;15.6;
41382;PMS5003;27971;53.902;9.118;2022-12-18T02:42:34;19.49;17.38;
41382;PMS5003;27971;53.902;9.118;2022-12-18T02:44:41;17.59;16.94;
41382;PMS5003;27971;53.902;9.118;2022-12-18T02:46:40;17.43;15.93;
41382;PMS5003;27971;53.902;9.118;2022-12-18T02:48:42;17.35;15.97;
41382;PMS5003;27971;53.902;9.118;2022-12-18T02:50:45;17.22;16.41;
41382;PMS5003;27971;53.902;9.118;2022-12-18T02:52:51;18.19;16.15;
41382;PMS5003;27971;53.902;9.118;2022-12-18T02:54:55;15.99;15.05;
41382;PMS5003;27971;53.902;9.118;2022-12-18T02:56:54;16.38;15.49;
41382;PMS5003;27971;53.902;9.118;2022-12-18T02:58:58;18.42;16.57;
41382;PMS5003;27971;53.902;9.118;2022-12-18T03:01:00;16.97;15.54;
41382;PMS5003;27971;53.902;9.118;2022-12-18T03:03:03;17.28;15.14;
41382;PMS5003;27971;53.902;9.118;2022-12-18T03:05:07;17.91;16.58;
41382;PMS5003;27971;53.902;9.118;2022-12-18T03:07:09;16.93;15.67;
41382;PMS5003;27971;53.902;9.118;2022-12-18T03:09:12;14.74;14.36;
41382;PMS5003;27971;53.902;9.118;2022-12-18T03:11:13;16.59;15.13;
41382;PMS5003;27971;53.902;9.118;2022-12-18T03:13:18;16.76;14.86;
41382;PMS5003;27971;53.902;9.118;2022-12-18T03:15:21;16.53;15.15;
41382;PMS5003;27971;53.902;9.118;2022-12-18T03:17:23;15.76;15.22;
41382;PMS5003;27971;53.902;9.118;2022-12-18T03:19:25;17.6;16.87;
41382;PMS5003;27971;53.902;9.118;2022-12-18T03:21:29;17.44;16.1;
41382;PMS5003;27971;53.902;9.118;2022-12-18T03:23:33;15.51;14.62;
41382;PMS5003;27971;53.902;9.118;2022-12-18T03:25:35;16.3;14.71;
41382;PMS5003;27971;53.902;9.118;2022-12-18T03:27:37;14.76;13.66;
41382;PMS5003;27971;53.902;9.118;2022-12-18T03:29:40;16.03;15.55;
41382;PMS5003;27971;53.902;9.118;2022-12-18T03:31:45;16.15;15.67;
41382;PMS5003;27971;53.902;9.118;2022-12-18T03:33:47;16.2;15.72;
41382;PMS5003;27971;53.902;9.118;2022-12-18T03:35:49;16.57;15.31;
41382;PMS5003;27971;53.902;9.118;2022-12-18T03:37:52;16.84;15.72;
41382;PMS5003;27971;53.902;9.118;2022-12-18T03:39:54;15.08;14.63;
41382;PMS5003;27971;53.902;9.118;2022-12-18T03:41:58;15.57;14.1;
41382;PMS5003;27971;53.902;9.118;2022-12-18T03:44:01;16.83;15.96;
41382;PMS5003;27971;53.902;9.118;2022-12-18T03:46:02;16.3;15.62;
41382;PMS5003;27971;53.902;9.118;2022-12-18T03:48:07;17.23;16.22;
41382;PMS5003;27971;53.902;9.118;2022-12-18T03:50:10;17.65;16.65;
41382;PMS5003;27971;53.902;9.118;2022-12-18T03:52:14;16.78;15.76;
41382;PMS5003;27971;53.902;9.118;2022-12-18T03:54:14;15.8;14.86;
41382;PMS5003;27971;53.902;9.118;2022-12-18T03:56:17;14.42;13.31;
41382;PMS5003;27971;53.902;9.118;2022-12-18T03:58:21;17.84;16.03;
41382;PMS5003;27971;53.902;9.118;2022-12-18T04:00:22;15.26;13.52;
41382;PMS5003;27971;53.902;9.118;2022-12-18T04:02:25;17.06;15.36;
41382;PMS5003;27971;53.902;9.118;2022-12-18T04:04:28;15.81;14.77;
41382;PMS5003;27971;53.902;9.118;2022-12-18T04:06:31;17.74;16.42;
41382;PMS5003;27971;53.902;9.118;2022-12-18T04:08:34;17.16;14.91;
41382;PMS5003;27971;53.902;9.118;2022-12-18T04:10:37;15.67;14.52;
41382;PMS5003;27971;53.902;9.118;2022-12-18T04:12:39;19.02;17.01;
41382;PMS5003;27971;53.902;9.118;2022-12-18T04:14:42;13.92;13.4;
41382;PMS5003;27971;53.902;9.118;2022-12-18T04:16:44;18.67;17.41;
41382;PMS5003;27971;53.902;9.118;2022-12-18T04:18:46;17.07;15.8;
41382;PMS5003;27971;53.902;9.118;2022-12-18T04:20:49;17.31;16.33;
41382;PMS5003;27971;53.902;9.118;2022-12-18T04:22:52;15.48;14.46;
41382;PMS5003;27971;53.902;9.118;2022-12-18T04:24:56;15.73;14.29;
41382;PMS5003;27971;53.902;9.118;2022-12-18T04:26:59;16.0;14.04;
41382;PMS5003;27971;53.902;9.118;2022-12-18T04:29:01;16.16;14.44;
41382;PMS5003;27971;53.902;9.118;2022-12-18T04:31:05;15.51;14.31;
41382;PMS5003;27971;53.902;9.118;2022-12-18T04:33:08;16.3;14.86;
41382;PMS5003;27971;53.902;9.118;2022-12-18T04:35:11;14.83;13.66;
41382;PMS5003;27971;53.902;9.118;2022-12-18T04:37:14;17.07;15.5;
41382;PMS5003;27971;53.902;9.118;2022-12-18T04:39:17;15.4;13.74;
41382;PMS5003;27971;53.902;9.118;2022-12-18T04:41:20;14.29;13.7;
41382;PMS5003;27971;53.902;9.118;2022-12-18T04:43:23;15.58;14.46;
41382;PMS5003;27971;53.902;9.118;2022-12-18T04:45:26;14.27;13.22;
41382;PMS5003;27971;53.902;9.118;2022-12-18T04:47:28;14.98;13.81;
41382;PMS5003;27971;53.902;9.118;2022-12-18T04:49:31;17.27;16.2;
41382;PMS5003;27971;53.902;9.118;2022-12-18T04:51:33;14.93;14.2;
41382;PMS5003;27971;53.902;9.118;2022-12-18T04:53:35;14.09;12.79;
41382;PMS5003;27971;53.902;9.118;2022-12-18T04:55:39;13.31;12.85;
41382;PMS5003;27971;53.902;9.118;2022-12-18T04:57:41;16.1;14.74;
41382;PMS5003;27971;53.902;9.118;2022-12-18T04:59:44;15.43;14.57;
41382;PMS5003;27971;53.902;9.118;2022-12-18T05:01:46;15.9;14.68;
41382;PMS5003;27971;53.902;9.118;2022-12-18T05:03:50;16.27;15.28;
41382;PMS5003;27971;53.902;9.118;2022-12-18T05:05:51;16.18;14.69;
41382;PMS5003;27971;53.902;9.118;2022-12-18T05:07:54;16.28;15.21;
41382;PMS5003;27971;53.902;9.118;2022-12-18T05:09:56;15.71;15.17;
41382;PMS5003;27971;53.902;9.118;2022-12-18T05:11:59;14.37;13.98;
41382;PMS5003;27971;53.902;9.118;2022-12-18T05:14:01;15.82;14.21;
41382;PMS5003;27971;53.902;9.118;2022-12-18T05:16:04;15.34;14.31;
41382;PMS5003;27971;53.902;9.118;2022-12-18T05:18:07;17.53;15.37;
41382;PMS5003;27971;53.902;9.118;2022-12-18T05:20:10;15.4;15.2;
41382;PMS5003;27971;53.902;9.118;2022-12-18T05:22:12;15.23;14.68;
41382;PMS5003;27971;53.902;9.118;2022-12-18T05:24:15;15.0;14.53;
41382;PMS5003;27971;53.902;9.118;2022-12-18T05:26:18;14.78;14.01;
41382;PMS5003;27971;53.902;9.118;2022-12-18T05:28:21;14.59;13.52;
41382;PMS5003;27971;53.902;9.118;2022-12-18T05:30:23;16.66;15.79;
41382;PMS5003;27971;53.902;9.118;2022-12-18T05:32:26;14.97;13.7;
41382;PMS5003;27971;53.902;9.118;2022-12-18T05:34:28;14.18;13.11;
41382;PMS5003;27971;53.902;9.118;2022-12-18T05:36:31;15.08;13.9;
41382;PMS5003;27971;53.902;9.118;2022-12-18T05:38:34;16.1;14.38;
41382;PMS5003;27971;53.902;9.118;2022-12-18T05:40:36;16.11;14.24;
41382;PMS5003;27971;53.902;9.118;2022-12-18T05:42:39;15.1;13.93;
41382;PMS5003;27971;53.902;9.118;2022-12-18T05:44:41;14.9;14.12;
41382;PMS5003;27971;53.902;9.118;2022-12-18T05:46:44;13.98;13.11;
41382;PMS5003;27971;53.902;9.118;2022-12-18T05:48:47;16.23;15.04;
41382;PMS5003;27971;53.902;9.118;2022-12-18T05:50:50;15.9;13.77;
41382;PMS5003;27971;53.902;9.118;2022-12-18T05:52:52;16.16;15.11;
41382;PMS5003;27971;53.902;9.118;2022-12-18T05:54:55;15.49;14.5;
41382;PMS5003;27971;53.902;9.118;2022-12-18T05:56:57;14.14;13.19;
41382;PMS5003;27971;53.902;9.118;2022-12-18T05:59:00;14.81;13.33;
41382;PMS5003;27971;53.902;9.118;2022-12-18T06:01:07;16.5;15.68;
41382;PMS5003;27971;53.902;9.118;2022-12-18T06:03:06;16.27;14.5;
41382;PMS5003;27971;53.902;9.118;2022-12-18T06:05:09;16.41;14.94;
41382;PMS5003;27971;53.902;9.118;2022-12-18T06:07:11;13.77;13.73;
41382;PMS5003;27971;53.902;9.118;2022-12-18T06:09:14;13.22;12.62;
41382;PMS5003;27971;53.902;9.118;2022-12-18T06:11:17;13.67;12.6;
41382;PMS5003;27971;53.902;9.118;2022-12-18T06:13:19;12.94;12.46;
41382;PMS5003;27971;53.902;9.118;2022-12-18T06:15:22;15.3;14.04;
41382;PMS5003;27971;53.902;9.118;2022-12-18T06:17:27;14.7;13.91;
41382;PMS5003;27971;53.902;9.118;2022-12-18T06:19:28;12.96;12.7;
41382;PMS5003;27971;53.902;9.118;2022-12-18T06:21:31;15.23;14.22;
41382;PMS5003;27971;53.902;9.118;2022-12-18T06:23:33;14.53;13.33;
41382;PMS5003;27971;53.902;9.118;2022-12-18T06:25:37;14.99;13.64;
41382;PMS5003;27971;53.902;9.118;2022-12-18T06:27:38;13.87;12.75;
41382;PMS5003;27971;53.902;9.118;2022-12-18T06:29:41;13.43;12.26;
41382;PMS5003;27971;53.902;9.118;2022-12-18T06:31:43;13.4;12.17;
41382;PMS5003;27971;53.902;9.118;2022-12-18T06:33:46;15.23;14.56;
41382;PMS5003;27971;53.902;9.118;2022-12-18T06:35:48;15.23;14.18;
41382;PMS5003;27971;53.902;9.118;2022-12-18T06:37:51;14.79;13.39;
41382;PMS5003;27971;53.902;9.118;2022-12-18T06:39:53;15.18;14.12;
41382;PMS5003;27971;53.902;9.118;2022-12-18T06:41:55;15.37;14.38;
41382;PMS5003;27971;53.902;9.118;2022-12-18T06:43:58;13.62;13.34;
41382;PMS5003;27971;53.902;9.118;2022-12-18T06:46:00;15.64;13.03;
41382;PMS5003;27971;53.902;9.118;2022-12-18T06:48:03;15.43;14.06;
41382;PMS5003;27971;53.902;9.118;2022-12-18T06:50:05;16.21;14.94;
41382;PMS5003;27971;53.902;9.118;2022-12-18T06:52:07;15.24;13.81;
41382;PMS5003;27971;53.902;9.118;2022-12-18T06:54:10;15.7;14.41;
41382;PMS5003;27971;53.902;9.118;2022-12-18T06:56:12;13.07;12.3;
41382;PMS5003;27971;53.902;9.118;2022-12-18T06:58:14;15.97;14.0;
41382;PMS5003;27971;53.902;9.118;2022-12-18T07:00:17;14.4;13.23;
41382;PMS5003;27971;53.902;9.118;2022-12-18T07:02:20;13.51;12.28;
41382;PMS5003;27971;53.902;9.118;2022-12-18T07:04:26;15.26;13.02;
41382;PMS5003;27971;53.902;9.118;2022-12-18T07:06:26;14.34;12.79;
41382;PMS5003;27971;53.902;9.118;2022-12-18T07:08:28;15.58;14.46;
41382;PMS5003;27971;53.902;9.118;2022-12-18T07:10:31;14.38;13.79;
41382;PMS5003;27971;53.902;9.118;2022-12-18T07:12:34;13.76;12.99;
41382;PMS5003;27971;53.902;9.118;2022-12-18T07:14:36;15.26;14.22;
41382;PMS5003;27971;53.902;9.118;2022-12-18T07:16:39;14.59;13.79;
41382;PMS5003;27971;53.902;9.118;2022-12-18T07:18:41;14.9;13.4;
41382;PMS5003;27971;53.902;9.118;2022-12-18T07:20:44;14.31;13.34;
41382;PMS5003;27971;53.902;9.118;2022-12-18T07:22:46;13.96;13.09;
41382;PMS5003;27971;53.902;9.118;2022-12-18T07:24:48;13.04;12.64;
41382;PMS5003;27971;53.902;9.118;2022-12-18T07:26:51;14.56;13.68;
41382;PMS5003;27971;53.902;9.118;2022-12-18T07:28:54;12.99;11.86;
41382;PMS5003;27971;53.902;9.118;2022-12-18T07:30:56;14.12;13.37;
41382;PMS5003;27971;53.902;9.118;2022-12-18T07:32:59;13.89;13.36;
41382;PMS5003;27971;53.902;9.118;2022-12-18T07:35:01;14.0;12.33;
41382;PMS5003;27971;53.902;9.118;2022-12-18T07:37:04;14.36;13.38;
41382;PMS5003;27971;53.902;9.118;2022-12-18T07:39:07;13.69;12.96;
41382;PMS5003;27971;53.902;9.118;2022-12-18T07:41:11;14.18;13.27;
41382;PMS5003;27971;53.902;9.118;2022-12-18T07:43:13;13.89;13.72;
41382;PMS5003;27971;53.902;9.118;2022-12-18T07:45:15;13.89;12.61;
41382;PMS5003;27971;53.902;9.118;2022-12-18T07:47:18;14.79;13.44;
41382;PMS5003;27971;53.902;9.118;2022-12-18T07:49:20;14.63;13.61;
41382;PMS5003;27971;53.902;9.118;2022-12-18T07:51:23;16.08;13.33;
41382;PMS5003;27971;53.902;9.118;2022-12-18T07:53:26;13.77;12.86;
41382;PMS5003;27971;53.902;9.118;2022-12-18T07:55:28;13.71;11.97;
41382;PMS5003;27971;53.902;9.118;2022-12-18T07:57:31;13.89;13.26;
41382;PMS5003;27971;53.902;9.118;2022-12-18T07:59:33;13.81;12.21;
41382;PMS5003;27971;53.902;9.118;2022-12-18T08:01:36;13.47;12.34;
41382;PMS5003;27971;53.902;9.118;2022-12-18T08:03:39;13.81;12.37;
41382;PMS5003;27971;53.902;9.118;2022-12-18T08:05:41;12.25;11.63;
41382;PMS5003;27971;53.902;9.118;2022-12-18T08:07:43;14.1;13.06;
41382;PMS5003;27971;53.902;9.118;2022-12-18T08:09:46;14.57;13.08;
41382;PMS5003;27971;53.902;9.118;2022-12-18T08:11:48;14.04;13.2;
41382;PMS5003;27971;53.902;9.118;2022-12-18T08:13:50;12.11;11.78;
41382;PMS5003;27971;53.902;9.118;2022-12-18T08:15:56;14.14;13.57;
41382;PMS5003;27971;53.902;9.118;2022-12-18T08:17:56;15.28;13.77;
41382;PMS5003;27971;53.902;9.118;2022-12-18T08:19:58;12.69;11.78;
41382;PMS5003;27971;53.902;9.118;2022-12-18T08:22:01;13.68;12.8;
41382;PMS5003;27971;53.902;9.118;2022-12-18T08:24:03;12.63;11.79;
41382;PMS5003;27971;53.902;9.118;2022-12-18T08:26:06;12.4;12.17;
41382;PMS5003;27971;53.902;9.118;2022-12-18T08:28:09;14.67;13.08;
41382;PMS5003;27971;53.902;9.118;2022-12-18T08:30:12;13.67;11.76;
41382;PMS5003;27971;53.902;9.118;2022-12-18T08:32:15;13.34;11.71;
41382;PMS5003;27971;53.902;9.118;2022-12-18T08:34:17;12.81;12.13;
41382;PMS5003;27971;53.902;9.118;2022-12-18T08:36:20;13.59;12.98;
41382;PMS5003;27971;53.902;9.118;2022-12-18T08:38:23;12.47;11.59;
41382;PMS5003;27971;53.902;9.118;2022-12-18T08:40:26;12.78;11.87;
41382;PMS5003;27971;53.902;9.118;2022-12-18T08:42:29;12.54;11.98;
41382;PMS5003;27971;53.902;9.118;2022-12-18T08:44:32;11.42;10.99;
41382;PMS5003;27971;53.902;9.118;2022-12-18T08:46:35;13.73;12.4;
41382;PMS5003;27971;53.902;9.118;2022-12-18T08:48:37;12.76;11.56;
41382;PMS5003;27971;53.902;9.118;2022-12-18T08:50:41;14.04;12.52;
41382;PMS5003;27971;53.902;9.118;2022-12-18T08:52:43;12.49;11.62;
41382;PMS5003;27971;53.902;9.118;2022-12-18T08:54:45;13.09;12.02;
41382;PMS5003;27971;53.902;9.118;2022-12-18T08:56:48;11.79;11.36;
41382;PMS5003;27971;53.902;9.118;2022-12-18T08:58:51;12.84;12.31;
41382;PMS5003;27971;53.902;9.118;2022-12-18T09:00:54;14.01;12.07;
41382;PMS5003;27971;53.902;9.118;2022-12-18T09:02:57;12.52;11.23;
41382;PMS5003;27971;53.902;9.118;2022-12-18T09:04:59;11.61;10.88;
41382;PMS5003;27971;53.902;9.118;2022-12-18T09:07:02;11.53;11.37;
41382;PMS5003;27971;53.902;9.118;2022-12-18T09:09:04;11.92;10.92;
41382;PMS5003;27971;53.902;9.118;2022-12-18T09:11:11;11.11;10.54;
41382;PMS5003;27971;53.902;9.118;2022-12-18T09:13:10;13.29;12.69;
41382;PMS5003;27971;53.902;9.118;2022-12-18T09:15:13;10.83;10.4;
41382;PMS5003;27971;53.902;9.118;2022-12-18T09:17:15;12.28;11.92;
41382;PMS5003;27971;53.902;9.118;2022-12-18T09:19:17;13.12;12.31;
41382;PMS5003;27971;53.902;9.118;2022-12-18T09:21:20;12.64;12.04;
41382;PMS5003;27971;53.902;9.118;2022-12-18T09:23:23;12.0;11.42;
41382;PMS5003;27971;53.902;9.118;2022-12-18T09:25:25;12.52;11.17;
41382;PMS5003;27971;53.902;9.118;2022-12-18T09:27:28;12.6;11.54;
41382;PMS5003;27971;53.902;9.118;2022-12-18T09:29:30;12.74;11.39;
41382;PMS5003;27971;53.902;9.118;2022-12-18T09:31:33;12.48;11.94;
41382;PMS5003;27971;53.902;9.118;2022-12-18T09:33:36;10.99;10.24;
41382;PMS5003;27971;53.902;9.118;2022-12-18T09:35:38;12.58;11.63;
41382;PMS5003;27971;53.902;9.118;2022-12-18T09:37:42;13.46;11.91;
41382;PMS5003;27971;53.902;9.118;2022-12-18T09:39:44;11.07;10.27;
41382;PMS5003;27971;53.902;9.118;2022-12-18T09:41:47;12.07;11.27;
41382;PMS5003;27971;53.902;9.118;2022-12-18T09:43:50;11.84;10.76;
41382;PMS5003;27971;53.902;9.118;2022-12-18T09:45:53;10.83;10.52;
41382;PMS5003;27971;53.902;9.118;2022-12-18T09:47:55;10.2;9.9;
41382;PMS5003;27971;53.902;9.118;2022-12-18T09:49:58;10.66;9.71;
41382;PMS5003;27971;53.902;9.118;2022-12-18T09:52:02;11.36;10.33;
41382;PMS5003;27971;53.902;9.118;2022-12-18T09:54:04;11.09;10.4;
41382;PMS5003;27971;53.902;9.118;2022-12-18T09:56:06;13.3;11.65;
41382;PMS5003;27971;53.902;9.118;2022-12-18T09:58:14;11.2;10.49;
41382;PMS5003;27971;53.902;9.118;2022-12-18T10:00:15;11.5;10.62;
41382;PMS5003;27971;53.902;9.118;2022-12-18T10:02:16;10.64;9.41;
41382;PMS5003;27971;53.902;9.118;2022-12-18T10:04:18;10.5;9.78;
41382;PMS5003;27971;53.902;9.118;2022-12-18T10:06:22;11.12;10.04;
41382;PMS5003;27971;53.902;9.118;2022-12-18T10:08:24;11.08;10.0;
41382;PMS5003;27971;53.902;9.118;2022-12-18T10:10:29;10.77;10.29;
41382;PMS5003;27971;53.902;9.118;2022-12-18T10:12:31;10.96;9.71;
41382;PMS5003;27971;53.902;9.118;2022-12-18T10:14:34;11.41;10.79;
41382;PMS5003;27971;53.902;9.118;2022-12-18T10:16:35;11.19;10.19;
41382;PMS5003;27971;53.902;9.118;2022-12-18T10:18:56;10.23;10.2;
41382;PMS5003;27971;53.902;9.118;2022-12-18T10:20:40;9.61;9.18;
41382;PMS5003;27971;53.902;9.118;2022-12-18T10:22:46;10.86;10.0;
41382;PMS5003;27971;53.902;9.118;2022-12-18T10:24:45;11.62;10.85;
41382;PMS5003;27971;53.902;9.118;2022-12-18T10:26:47;10.11;8.99;
41382;PMS5003;27971;53.902;9.118;2022-12-18T10:28:49;12.04;10.67;
41382;PMS5003;27971;53.902;9.118;2022-12-18T10:30:52;12.1;10.78;
41382;PMS5003;27971;53.902;9.118;2022-12-18T10:32:54;10.53;9.9;
41382;PMS5003;27971;53.902;9.118;2022-12-18T10:34:57;9.67;9.35;
41382;PMS5003;27971;53.902;9.118;2022-12-18T10:37:00;9.81;9.21;
41382;PMS5003;27971;53.902;9.118;2022-12-18T10:39:14;8.66;8.25;
41382;PMS5003;27971;53.902;9.118;2022-12-18T10:41:21;9.59;9.04;
41382;PMS5003;27971;53.902;9.118;2022-12-18T10:43:11;11.17;10.84;
41382;PMS5003;27971;53.902;9.118;2022-12-18T10:45:14;11.52;10.67;
41382;PMS5003;27971;53.902;9.118;2022-12-18T10:47:14;10.52;9.77;
41382;PMS5003;27971;53.902;9.118;2022-12-18T10:49:18;11.19;10.36;
41382;PMS5003;27971;53.902;9.118;2022-12-18T10:51:20;11.83;10.79;
41382;PMS5003;27971;53.902;9.118;2022-12-18T10:53:24;10.69;9.59;
41382;PMS5003;27971;53.902;9.118;2022-12-18T10:55:27;9.88;9.6;
41382;PMS5003;27971;53.902;9.118;2022-12-18T10:57:31;10.59;9.69;
41382;PMS5003;27971;53.902;9.118;2022-12-18T10:59:32;11.85;9.97;
41382;PMS5003;27971;53.902;9.118;2022-12-18T11:01:45;8.13;8.13;
41382;PMS5003;27971;53.902;9.118;2022-12-18T11:03:39;11.01;9.25;
41382;PMS5003;27971;53.902;9.118;2022-12-18T11:05:41;9.41;8.73;
41382;PMS5003;27971;53.902;9.118;2022-12-18T11:07:47;11.1;9.67;
41382;PMS5003;27971;53.902;9.118;2022-12-18T11:09:59;10.54;9.67;
41382;PMS5003;27971;53.902;9.118;2022-12-18T11:11:49;11.49;10.34;
41382;PMS5003;27971;53.902;9.118;2022-12-18T11:13:54;11.36;10.71;
41382;PMS5003;27971;53.902;9.118;2022-12-18T11:15:53;10.6;9.63;
41382;PMS5003;27971;53.902;9.118;2022-12-18T11:17:56;11.18;10.81;
41382;PMS5003;27971;53.902;9.118;2022-12-18T11:19:59;9.62;8.82;
41382;PMS5003;27971;53.902;9.118;2022-12-18T11:22:02;9.96;9.08;
41382;PMS5003;27971;53.902;9.118;2022-12-18T11:24:05;8.96;8.79;
41382;PMS5003;27971;53.902;9.118;2022-12-18T11:26:07;8.61;7.9;
41382;PMS5003;27971;53.902;9.118;2022-12-18T11:28:25;9.54;8.88;
41382;PMS5003;27971;53.902;9.118;2022-12-18T11:30:21;10.0;9.43;
41382;PMS5003;27971;53.902;9.118;2022-12-18T11:32:25;10.4;10.22;
41382;PMS5003;27971;53.902;9.118;2022-12-18T11:34:20;10.81;10.01;
41382;PMS5003;27971;53.902;9.118;2022-12-18T11:36:22;9.55;9.19;
41382;PMS5003;27971;53.902;9.118;2022-12-18T11:38:26;9.33;9.33;
41382;PMS5003;27971;53.902;9.118;2022-12-18T11:40:29;9.52;8.99;
41382;PMS5003;27971;53.902;9.118;2022-12-18T11:42:32;9.58;9.31;
41382;PMS5003;27971;53.902;9.118;2022-12-18T11:44:35;10.06;9.54;
41382;PMS5003;27971;53.902;9.118;2022-12-18T11:46:36;9.19;8.39;
41382;PMS5003;27971;53.902;9.118;2022-12-18T11:48:40;9.69;8.61;
41382;PMS5003;27971;53.902;9.118;2022-12-18T11:50:43;12.33;10.48;
41382;PMS5003;27971;53.902;9.118;2022-12-18T11:52:44;10.44;9.68;
41382;PMS5003;27971;53.902;9.118;2022-12-18T11:54:50;9.0;8.86;
41382;PMS5003;27971;53.902;9.118;2022-12-18T11:56:50;10.17;9.14;
41382;PMS5003;27971;53.902;9.118;2022-12-18T11:58:54;10.15;9.92;
41382;PMS5003;27971;53.902;9.118;2022-12-18T12:00:56;10.9;9.82;
41382;PMS5003;27971;53.902;9.118;2022-12-18T12:03:08;10.05;8.95;
41382;PMS5003;27971;53.902;9.118;2022-12-18T12:05:04;11.81;10.01;
41382;PMS5003;27971;53.902;9.118;2022-12-18T12:07:04;10.44;9.67;
41382;PMS5003;27971;53.902;9.118;2022-12-18T12:09:07;9.74;9.32;
41382;PMS5003;27971;53.902;9.118;2022-12-18T12:11:10;9.57;8.65;
41382;PMS5003;27971;53.902;9.118;2022-12-18T12:13:30;9.67;9.67;
41382;PMS5003;27971;53.902;9.118;2022-12-18T12:15:18;9.57;9.09;
41382;PMS5003;27971;53.902;9.118;2022-12-18T12:17:19;9.54;8.62;
41382;PMS5003;27971;53.902;9.118;2022-12-18T12:19:23;9.1;7.86;
41382;PMS5003;27971;53.902;9.118;2022-12-18T12:21:23;9.75;9.16;
41382;PMS5003;27971;53.902;9.118;2022-12-18T12:23:27;9.77;9.01;
41382;PMS5003;27971;53.902;9.118;2022-12-18T12:25:30;8.62;7.99;
41382;PMS5003;27971;53.902;9.118;2022-12-18T12:27:33;10.5;9.55;
41382;PMS5003;27971;53.902;9.118;2022-12-18T12:29:36;8.65;8.65;